createdAt,value
2023-01-01T01:07:22.302Z,15.21
2023-01-01T01:10:24.584Z,15.30
2023-01-01T01:13:05.757Z,15.32
2023-01-01T01:15:36.671Z,15.36
2023-01-01T01:18:24.171Z,15.32
2023-01-01T01:21:00.933Z,15.31
2023-01-01T01:23:35.060Z,15.32
2023-01-01T01:26:31.965Z,15.29
2023-01-01T01:29:15.420Z,15.34
2023-01-01T01:32:02.313Z,15.30
2023-01-01T01:34:51.625Z,15.32
2023-01-01T01:37:31.815Z,15.29
2023-01-01T01:40:02.506Z,15.31
2023-01-01T01:42:41.266Z,15.34
2023-01-01T01:45:14.286Z,15.31
2023-01-01T01:47:52.299Z,15.42
2023-01-01T01:50:29.970Z,15.45
2023-01-01T01:53:05.709Z,15.42
2023-01-01T01:55:39.637Z,15.43
2023-01-01T01:58:16.823Z,15.37
2023-01-01T02:00:57.022Z,15.36
2023-01-01T02:03:34.604Z,15.40
2023-01-01T02:06:14.599Z,15.42
2023-01-01T02:08:45.622Z,15.34
2023-01-01T02:11:24.440Z,15.25
2023-01-01T02:13:59.245Z,15.34
2023-01-01T02:16:47.668Z,15.32
2023-01-01T02:19:30.222Z,15.32
2023-01-01T02:22:18.021Z,15.37
2023-01-01T02:25:11.537Z,15.35
2023-01-01T02:27:56.365Z,15.34
2023-01-01T02:30:37.887Z,15.35
2023-01-01T02:33:45.865Z,15.31
2023-01-01T02:36:29.080Z,15.35
2023-01-01T02:39:06.921Z,15.26
2023-01-01T02:42:04.940Z,15.32
2023-01-01T02:44:48.030Z,15.28
2023-01-01T02:48:20.581Z,15.24
2023-01-01T02:51:56.438Z,15.23
2023-01-01T02:55:12.528Z,15.21
2023-01-01T02:58:44.617Z,15.21
2023-01-01T03:02:07.177Z,15.17
2023-01-01T03:04:51.861Z,15.19
2023-01-01T03:07:51.342Z,15.15
2023-01-01T03:15:01.362Z,15.08
2023-01-01T03:18:32.144Z,15.03
2023-01-01T03:21:37.396Z,15.01
2023-01-01T03:24:49.549Z,14.89
2023-01-01T03:27:47.065Z,14.91
2023-01-01T03:31:06.289Z,14.81
2023-01-01T03:37:17.690Z,14.81
2023-01-01T03:40:47.990Z,14.76
2023-01-01T03:44:19.025Z,14.66
2023-01-01T03:56:34.377Z,14.47
2023-01-01T04:00:56.421Z,14.47
2023-01-01T04:04:36.074Z,14.38
2023-01-01T04:14:54.907Z,14.34
2023-01-01T04:18:06.860Z,14.31
2023-01-01T04:21:27.266Z,14.28
2023-01-01T04:24:21.311Z,14.24
2023-01-01T04:27:14.614Z,14.24
2023-01-01T04:40:16.953Z,14.09
2023-01-01T04:43:31.738Z,14.03
2023-01-01T04:46:27.835Z,14.06
2023-01-01T04:49:35.751Z,14.06
2023-01-01T04:52:56.969Z,14.08
2023-01-01T04:55:48.390Z,14.10
2023-01-01T04:58:32.424Z,14.10
2023-01-01T05:04:54.685Z,14.05
2023-01-01T05:08:38.047Z,14.01
2023-01-01T05:15:22.990Z,13.76
2023-01-01T05:19:28.750Z,13.76
2023-01-01T05:22:10.651Z,13.72
2023-01-01T05:25:27.258Z,13.68
2023-01-01T05:28:32.445Z,13.69
2023-01-01T05:31:58.618Z,13.66
2023-01-01T05:35:09.531Z,13.59
2023-01-01T05:38:13.720Z,13.62
2023-01-01T05:45:15.724Z,13.57
2023-01-01T05:47:52.665Z,13.51
2023-01-01T05:50:42.223Z,13.47
2023-01-01T05:53:13.150Z,13.49
2023-01-01T05:56:07.506Z,13.51
2023-01-01T05:58:52.755Z,13.48
2023-01-01T06:01:26.936Z,13.46
2023-01-01T06:04:01.183Z,13.43
2023-01-01T06:06:36.036Z,13.46
2023-01-01T06:09:12.686Z,13.47
2023-01-01T06:11:47.328Z,13.51
2023-01-01T06:14:24.450Z,13.51
2023-01-01T06:17:24.961Z,13.47
2023-01-01T06:20:16.619Z,13.47
2023-01-01T06:23:16.063Z,13.56
2023-01-01T06:26:14.075Z,13.53
2023-01-01T06:29:04.940Z,13.60
2023-01-01T06:31:46.937Z,13.62
2023-01-01T06:34:31.910Z,13.65
2023-01-01T06:37:12.872Z,13.66
2023-01-01T06:39:55.620Z,13.67
2023-01-01T06:46:12.052Z,13.73
2023-01-01T06:48:42.878Z,13.75
2023-01-01T06:51:14.725Z,13.71
2023-01-01T06:53:47.947Z,13.73
2023-01-01T06:56:22.359Z,13.76
2023-01-01T06:58:57.319Z,13.76
2023-01-01T07:01:32.388Z,13.73
2023-01-01T07:04:04.448Z,13.73
2023-01-01T07:06:37.878Z,13.70
2023-01-01T07:09:09.989Z,13.74
2023-01-01T07:12:00.594Z,13.71
2023-01-01T07:15:31.305Z,13.66
2023-01-01T07:18:07.520Z,13.67
2023-01-01T07:20:46.677Z,13.65
2023-01-01T07:23:17.308Z,13.66
2023-01-01T07:25:47.618Z,13.69
2023-01-01T07:28:21.091Z,13.64
2023-01-01T07:30:52.873Z,13.62
2023-01-01T07:33:26.530Z,13.67
2023-01-01T07:35:58.808Z,13.74
2023-01-01T07:41:56.333Z,13.73
2023-01-01T07:44:35.571Z,13.81
2023-01-01T07:47:06.615Z,13.85
2023-01-01T07:49:41.226Z,13.88
2023-01-01T07:52:16.070Z,13.97
2023-01-01T07:54:57.023Z,13.95
2023-01-01T07:57:27.880Z,13.93
2023-01-01T08:00:07.862Z,14.11
2023-01-01T08:02:53.113Z,14.08
2023-01-01T08:05:44.713Z,14.17
2023-01-01T08:08:38.968Z,14.17
2023-01-01T08:12:12.151Z,14.16
2023-01-01T08:16:18.780Z,14.33
2023-01-01T08:20:17.195Z,14.28
2023-01-01T08:23:39.220Z,14.29
2023-01-01T08:29:39.913Z,14.36
2023-01-01T08:32:17.721Z,14.34
2023-01-01T08:34:51.519Z,14.35
2023-01-01T08:37:42.883Z,14.35
2023-01-01T08:40:20.631Z,14.39
2023-01-01T08:42:53.750Z,14.39
2023-01-01T08:45:24.804Z,14.40
2023-01-01T08:47:57.550Z,14.41
2023-01-01T08:50:28.307Z,14.51
2023-01-01T08:53:00.230Z,14.48
2023-01-01T08:55:41.881Z,14.48
2023-01-01T08:58:13.399Z,14.52
2023-01-01T09:00:43.721Z,14.52
2023-01-01T09:03:16.617Z,14.56
2023-01-01T09:05:47.571Z,14.57
2023-01-01T09:08:21.372Z,14.60
2023-01-01T09:10:59.175Z,14.65
2023-01-01T09:13:30.780Z,14.71
2023-01-01T09:16:05.084Z,14.61
2023-01-01T09:18:38.039Z,14.69
2023-01-01T09:21:09.101Z,14.72
2023-01-01T09:23:39.259Z,14.65
2023-01-01T09:26:11.468Z,14.68
2023-01-01T09:28:44.816Z,14.64
2023-01-01T09:31:16.273Z,14.62
2023-01-01T09:33:49.142Z,14.64
2023-01-01T09:49:41.833Z,14.71
2023-01-01T09:52:48.064Z,14.69
2023-01-01T10:00:00.889Z,14.73
2023-01-01T10:03:01.753Z,14.77
2023-01-01T10:05:56.720Z,14.89
2023-01-01T10:23:48.569Z,14.85
2023-01-01T10:26:30.673Z,14.88
2023-01-01T10:29:28.357Z,14.89
2023-01-01T10:32:26.189Z,14.90
2023-01-01T10:35:56.313Z,14.88
2023-01-01T10:39:27.303Z,14.91
2023-01-01T10:42:36.132Z,14.93
2023-01-01T10:45:57.496Z,14.96
2023-01-01T10:48:43.478Z,14.95
2023-01-01T10:51:28.255Z,14.99
2023-01-01T10:53:59.657Z,15.00
2023-01-01T10:56:43.439Z,15.01
2023-01-01T10:59:39.191Z,15.01
2023-01-01T11:02:22.828Z,15.06
2023-01-01T11:05:22.312Z,15.12
2023-01-01T11:07:53.056Z,15.10
2023-01-01T11:10:31.725Z,15.11
2023-01-01T11:47:36.111Z,15.03
2023-01-01T11:50:26.198Z,15.04
2023-01-01T11:53:13.599Z,15.04
2023-01-01T12:14:20.788Z,15.11
2023-01-01T12:17:51.074Z,15.10
2023-01-01T12:41:43.398Z,14.95
2023-01-01T12:49:31.222Z,14.90
2023-01-01T13:00:34.495Z,14.85
2023-01-01T13:09:19.527Z,14.83
2023-01-01T13:20:33.925Z,14.81
2023-01-01T13:42:54.161Z,14.68
2023-01-01T13:46:19.116Z,14.68
2023-01-01T13:54:26.118Z,14.70
2023-01-01T14:13:40.176Z,14.56
2023-01-01T14:17:21.559Z,14.52
2023-01-01T14:20:01.318Z,14.54
2023-01-01T14:22:39.655Z,14.50
2023-01-01T14:25:37.067Z,14.52
2023-01-01T14:28:08.796Z,14.53
2023-01-01T14:34:36.629Z,14.47
2023-01-01T14:37:45.318Z,14.47
2023-01-01T14:40:53.124Z,14.48
2023-01-01T14:44:09.246Z,14.44
2023-01-01T14:55:46.040Z,14.36
2023-01-01T14:59:00.001Z,14.37
2023-01-01T15:05:38.159Z,14.28
2023-01-01T15:28:50.885Z,14.03
2023-01-01T15:31:24.630Z,14.06
2023-01-01T15:34:29.814Z,14.09
2023-01-01T15:37:25.767Z,14.06
2023-01-01T15:40:37.548Z,14.05
2023-01-01T15:43:29.757Z,13.99
2023-01-01T15:50:26.164Z,13.95
2023-01-01T15:53:03.399Z,13.93
2023-01-01T15:56:24.128Z,13.87
2023-01-01T16:10:47.575Z,13.82
2023-01-01T16:18:14.398Z,13.68
2023-01-01T16:30:03.910Z,13.66
2023-01-01T16:42:50.459Z,13.50
2023-01-01T16:45:58.023Z,13.60
2023-01-01T16:49:22.191Z,13.46
2023-01-01T16:53:24.811Z,13.48
2023-01-01T16:56:23.348Z,13.39
2023-01-01T16:59:03.079Z,13.39
2023-01-01T17:09:37.599Z,13.29
2023-01-01T17:12:40.918Z,13.49
2023-01-01T17:15:39.215Z,13.51
2023-01-01T17:18:16.424Z,13.49
2023-01-01T17:50:41.991Z,13.59
2023-01-01T17:57:23.608Z,13.32
2023-01-01T18:00:42.721Z,13.42
2023-01-01T18:17:19.160Z,13.20
2023-01-01T18:20:49.007Z,13.09
2023-01-01T18:23:53.816Z,13.04
2023-01-01T18:31:07.260Z,12.91
2023-01-01T18:34:42.207Z,12.93
2023-01-01T18:38:31.517Z,12.94
2023-01-01T18:44:23.502Z,12.73
2023-01-01T18:46:58.147Z,12.75
2023-01-01T18:49:28.995Z,12.67
2023-01-01T18:52:19.948Z,12.70
2023-01-01T18:55:06.769Z,12.64
2023-01-01T18:57:40.670Z,12.70
2023-01-01T19:00:26.036Z,12.61
2023-01-01T19:03:51.031Z,12.61
2023-01-01T19:06:53.477Z,12.48
2023-01-01T19:09:58.788Z,12.49
2023-01-01T19:12:41.882Z,12.47
2023-01-01T19:16:11.645Z,12.51
2023-01-01T19:19:28.827Z,12.46
2023-01-01T19:28:51.889Z,12.73
2023-01-01T19:40:53.853Z,12.52
2023-01-01T19:44:25.192Z,12.51
2023-01-01T19:54:12.271Z,12.50
2023-01-01T19:56:43.211Z,12.54
2023-01-01T19:59:14.520Z,12.48
2023-01-01T20:01:50.208Z,12.55
2023-01-01T20:05:10.355Z,12.43
2023-01-01T20:11:25.754Z,12.58
2023-01-01T20:14:48.328Z,12.47
2023-01-01T20:17:55.552Z,12.42
2023-01-01T20:21:10.027Z,12.39
2023-01-01T20:24:17.840Z,12.43
2023-01-01T20:31:15.279Z,12.35
2023-01-01T20:35:00.472Z,12.42
2023-01-01T20:38:45.504Z,12.34
2023-01-01T20:45:15.571Z,12.29
2023-01-01T20:49:14.222Z,12.33
2023-01-01T20:52:26.651Z,12.32
2023-01-01T20:55:35.573Z,12.30
2023-01-01T20:58:09.939Z,12.43
2023-01-01T21:00:49.336Z,12.36
2023-01-01T21:10:20.571Z,12.35
2023-01-01T21:16:30.294Z,12.37
2023-01-01T21:23:27.326Z,12.33
2023-01-01T21:26:58.230Z,12.32
2023-01-01T21:41:12.741Z,12.05
2023-01-01T21:44:16.535Z,12.03
2023-01-01T21:48:42.416Z,12.05
2023-01-01T21:58:53.296Z,11.97
2023-01-01T22:09:21.277Z,11.86
2023-01-01T22:15:46.981Z,12.08
2023-01-01T22:22:49.540Z,12.07
2023-01-01T22:33:41.998Z,12.04
2023-01-01T22:37:07.319Z,12.10
2023-01-01T22:49:27.359Z,12.13
2023-01-01T22:52:37.705Z,12.09
2023-01-01T22:55:15.030Z,12.07
2023-01-01T22:58:08.080Z,12.10
2023-01-01T23:00:50.506Z,12.07
2023-01-01T23:08:08.434Z,12.07
2023-01-01T23:11:02.687Z,12.06
2023-01-01T23:13:56.117Z,12.15
2023-01-01T23:16:42.270Z,12.04
2023-01-01T23:19:15.142Z,12.09
2023-01-01T23:21:46.462Z,12.15
2023-01-01T23:24:22.733Z,12.12
2023-01-01T23:26:56.880Z,12.08
2023-01-01T23:29:33.829Z,12.07
2023-01-01T23:32:07.728Z,12.10
2023-01-01T23:34:52.325Z,12.11
2023-01-01T23:37:23.684Z,12.08
2023-01-01T23:39:54.174Z,12.06
2023-01-01T23:42:27.354Z,12.13
2023-01-01T23:45:05.673Z,12.15
2023-01-01T23:47:36.746Z,12.20
2023-01-01T23:50:10.771Z,12.18
2023-01-01T23:52:41.549Z,12.19
2023-01-01T23:55:12.618Z,12.14
2023-01-01T23:57:46.178Z,12.14
